createdAt,value
2023-04-16T00:00:33.076Z,8.55
2023-04-16T00:03:00.441Z,8.33
2023-04-16T00:05:27.696Z,8.00
2023-04-16T00:07:54.622Z,7.38
2023-04-16T00:10:21.686Z,9.45
2023-04-16T00:12:48.681Z,9.43
2023-04-16T00:15:15.761Z,9.27
2023-04-16T00:17:42.811Z,10.52
2023-04-16T00:20:10.574Z,9.55
2023-04-16T00:22:37.682Z,10.70
2023-04-16T00:25:05.183Z,10.20
2023-04-16T00:27:32.300Z,11.20
2023-04-16T00:29:59.309Z,10.05
2023-04-16T00:32:26.437Z,10.68
2023-04-16T00:34:53.437Z,9.90
2023-04-16T00:37:20.825Z,9.82
2023-04-16T00:39:47.874Z,10.97
2023-04-16T00:42:16.099Z,12.95
2023-04-16T00:44:43.108Z,11.68
2023-04-16T00:47:10.398Z,11.02
2023-04-16T00:49:37.615Z,9.90
2023-04-16T00:52:05.007Z,10.03
2023-04-16T00:54:32.705Z,10.75
2023-04-16T00:57:00.214Z,10.85
2023-04-16T00:59:27.930Z,11.75
2023-04-16T01:01:55.070Z,11.75
2023-04-16T01:04:22.560Z,9.80
2023-04-16T01:06:52.892Z,10.40
2023-04-16T01:09:20.135Z,10.95
2023-04-16T01:11:47.194Z,12.07
2023-04-16T01:14:14.314Z,10.07
2023-04-16T01:16:41.538Z,10.00
2023-04-16T01:19:08.972Z,10.45
2023-04-16T01:21:36.246Z,9.73
2023-04-16T01:24:04.801Z,9.88
2023-04-16T01:26:33.438Z,11.68
2023-04-16T01:29:01.397Z,9.33
2023-04-16T01:31:28.512Z,10.02
2023-04-16T01:34:01.526Z,10.27
2023-04-16T01:36:28.836Z,9.23
2023-04-16T01:38:55.884Z,9.25
2023-04-16T01:41:24.141Z,10.80
2023-04-16T01:43:51.812Z,11.75
2023-04-16T01:46:23.866Z,8.82
2023-04-16T01:48:50.974Z,10.52
2023-04-16T01:51:19.563Z,9.43
2023-04-16T01:53:46.669Z,12.63
2023-04-16T01:56:13.723Z,10.32
2023-04-16T01:58:42.911Z,10.95
2023-04-16T02:01:10.663Z,10.68
2023-04-16T02:03:39.026Z,9.55
2023-04-16T02:06:06.407Z,10.43
2023-04-16T02:08:33.534Z,10.60
2023-04-16T02:11:01.231Z,11.40
2023-04-16T02:13:28.591Z,10.57
2023-04-16T02:15:55.914Z,10.63
2023-04-16T02:18:45.910Z,9.97
2023-04-16T02:21:15.092Z,11.02
2023-04-16T02:23:46.043Z,10.60
2023-04-16T02:26:13.656Z,10.50
2023-04-16T02:28:41.080Z,10.50
2023-04-16T02:31:10.349Z,10.90
2023-04-16T02:33:42.499Z,12.40
2023-04-16T02:36:11.458Z,10.30
2023-04-16T02:38:38.820Z,10.50
2023-04-16T02:41:06.605Z,10.05
2023-04-16T02:43:34.564Z,9.57
2023-04-16T02:46:04.672Z,10.18
2023-04-16T02:48:32.135Z,10.20
2023-04-16T02:50:59.261Z,10.88
2023-04-16T02:53:26.403Z,8.10
2023-04-16T02:55:55.123Z,10.23
2023-04-16T02:58:27.088Z,12.20
2023-04-16T03:00:55.293Z,9.98
2023-04-16T03:03:22.788Z,8.90
2023-04-16T03:05:50.253Z,9.88
2023-04-16T03:08:17.469Z,11.37
2023-04-16T03:10:44.926Z,9.43
2023-04-16T03:13:12.276Z,8.55
2023-04-16T03:15:39.543Z,9.93
2023-04-16T03:18:06.734Z,9.10
2023-04-16T03:20:34.016Z,9.53
2023-04-16T03:23:01.419Z,9.95
2023-04-16T03:25:28.483Z,10.13
2023-04-16T03:27:56.492Z,9.88
2023-04-16T03:30:23.832Z,10.20
2023-04-16T03:32:50.921Z,9.80
2023-04-16T03:35:18.527Z,9.68
2023-04-16T03:37:45.593Z,9.50
2023-04-16T03:40:13.043Z,10.40
2023-04-16T03:42:40.581Z,9.43
2023-04-16T03:45:09.595Z,10.47
2023-04-16T03:47:38.051Z,10.30
2023-04-16T03:50:05.666Z,13.77
2023-04-16T03:52:32.907Z,9.80
2023-04-16T03:54:59.957Z,12.23
2023-04-16T03:57:30.295Z,10.97
2023-04-16T04:00:03.585Z,12.68
2023-04-16T04:02:41.562Z,10.95
2023-04-16T04:05:15.904Z,10.55
2023-04-16T04:07:44.243Z,9.38
2023-04-16T04:10:11.587Z,9.80
2023-04-16T04:12:41.501Z,9.85
2023-04-16T04:15:09.389Z,10.93
2023-04-16T04:17:36.436Z,9.43
2023-04-16T04:20:06.844Z,11.30
2023-04-16T04:22:34.018Z,9.87
2023-04-16T04:25:01.448Z,12.05
2023-04-16T04:27:30.788Z,8.98
2023-04-16T04:29:58.460Z,10.60
2023-04-16T04:32:25.789Z,9.05
2023-04-16T04:34:52.976Z,11.57
2023-04-16T04:37:20.633Z,8.85
2023-04-16T04:39:47.774Z,9.82
2023-04-16T04:47:25.805Z,12.13
2023-04-16T04:50:08.082Z,10.10
2023-04-16T05:00:41.016Z,8.38
2023-04-16T05:28:52.120Z,9.80
2023-04-16T05:31:20.083Z,6.90
2023-04-16T05:38:37.972Z,8.13
2023-04-16T05:45:43.989Z,7.18
2023-04-16T06:52:28.867Z,15.73
2023-04-16T07:25:12.467Z,7.90
2023-04-16T07:49:14.880Z,5.13
2023-04-16T07:51:44.356Z,4.90
2023-04-16T07:54:11.695Z,6.40
2023-04-16T07:56:38.879Z,5.43
2023-04-16T07:59:19.185Z,3.83
2023-04-16T08:01:49.945Z,4.90
2023-04-16T08:04:23.339Z,5.88
2023-04-16T08:06:51.700Z,4.93
2023-04-16T08:09:20.707Z,4.50
2023-04-16T08:11:49.314Z,3.23
2023-04-16T08:14:17.559Z,4.30
2023-04-16T08:16:44.996Z,5.03
2023-04-16T08:19:12.451Z,5.30
2023-04-16T08:21:40.084Z,5.68
2023-04-16T08:24:07.435Z,3.20
2023-04-16T08:26:34.553Z,4.85
2023-04-16T08:29:06.552Z,4.00
2023-04-16T08:31:34.162Z,3.13
2023-04-16T08:34:04.964Z,2.35
2023-04-16T08:36:35.261Z,3.37
2023-04-16T08:39:06.173Z,3.08
2023-04-16T08:41:34.891Z,2.80
2023-04-16T08:44:08.456Z,2.50
2023-04-16T08:46:41.176Z,3.55
2023-04-16T08:49:14.051Z,4.47
2023-04-16T08:51:57.666Z,3.42
2023-04-16T08:55:00.063Z,4.40
2023-04-16T08:58:00.618Z,4.00
2023-04-16T09:00:41.383Z,4.50
2023-04-16T09:03:09.480Z,3.60
2023-04-16T09:05:37.485Z,4.05
2023-04-16T09:08:08.679Z,3.80
2023-04-16T09:10:36.116Z,5.43
2023-04-16T10:13:22.447Z,3.05
2023-04-16T10:15:50.778Z,4.30
2023-04-16T10:22:44.826Z,4.60
2023-04-16T10:25:12.760Z,4.22
2023-04-16T10:27:41.245Z,5.10
2023-04-16T10:34:53.886Z,3.88
2023-04-16T11:27:30.942Z,4.37
2023-04-16T11:40:14.827Z,3.95
2023-04-16T11:42:49.586Z,3.60
2023-04-16T11:54:42.454Z,3.72
2023-04-16T11:57:12.827Z,3.55
2023-04-16T12:00:02.098Z,3.67
2023-04-16T12:02:49.186Z,2.97
2023-04-16T12:05:44.097Z,3.58
2023-04-16T12:08:12.954Z,3.28
2023-04-16T12:10:56.434Z,2.72
2023-04-16T12:13:23.797Z,3.00
2023-04-16T12:15:52.889Z,3.63
2023-04-16T12:23:16.662Z,5.72
2023-04-16T12:26:18.510Z,3.95
2023-04-16T12:28:48.330Z,3.67
2023-04-16T12:31:21.596Z,3.40
2023-04-16T12:58:22.686Z,2.50
2023-04-16T13:00:50.766Z,3.45
2023-04-16T13:03:17.956Z,4.53
2023-04-16T13:05:45.584Z,4.53
2023-04-16T13:08:12.843Z,2.67
2023-04-16T13:10:39.854Z,5.75
2023-04-16T13:13:06.809Z,4.88
2023-04-16T13:15:34.157Z,4.93
2023-04-16T13:18:07.254Z,3.97
2023-04-16T13:33:48.445Z,2.70
2023-04-16T13:36:15.875Z,5.03
2023-04-16T13:39:10.011Z,4.25
2023-04-16T13:41:44.695Z,2.90
2023-04-16T13:44:11.798Z,4.78
2023-04-16T14:15:36.693Z,4.25
2023-04-16T14:18:07.951Z,4.90
2023-04-16T14:25:22.534Z,4.80
2023-04-16T14:37:18.933Z,4.35
2023-04-16T14:44:20.649Z,3.72
2023-04-16T14:55:59.152Z,3.58
2023-04-16T14:58:26.862Z,4.80
2023-04-16T15:00:54.144Z,4.72
2023-04-16T15:03:21.733Z,2.87
2023-04-16T15:05:55.295Z,17.50
2023-04-16T15:08:23.504Z,4.10
2023-04-16T15:11:23.210Z,5.10
2023-04-16T15:13:50.432Z,4.60
2023-04-16T15:16:18.011Z,4.07
2023-04-16T15:18:45.243Z,4.07
2023-04-16T15:21:12.834Z,5.80
2023-04-16T15:23:58.003Z,3.38
2023-04-16T15:26:26.126Z,3.85
2023-04-16T15:28:56.456Z,4.87
2023-04-16T15:31:23.629Z,5.40
2023-04-16T15:38:29.860Z,4.80
2023-04-16T15:41:00.898Z,6.15
2023-04-16T15:43:30.039Z,5.30
2023-04-16T15:45:57.398Z,3.42
2023-04-16T15:48:25.140Z,6.20
2023-04-16T15:50:53.074Z,5.20
2023-04-16T15:53:20.318Z,26.20
2023-04-16T15:55:49.849Z,63.77
2023-04-16T15:58:17.709Z,10.70
2023-04-16T16:00:47.699Z,6.75
2023-04-16T16:03:14.856Z,4.10
2023-04-16T16:05:42.569Z,3.20
2023-04-16T16:08:09.783Z,5.90
2023-04-16T16:10:36.821Z,4.50
2023-04-16T16:13:06.087Z,4.10
2023-04-16T16:15:33.075Z,4.43
2023-04-16T16:18:00.229Z,6.63
2023-04-16T16:20:27.649Z,5.00
2023-04-16T16:22:54.799Z,5.45
2023-04-16T16:25:22.275Z,5.55
2023-04-16T16:27:49.473Z,5.88
2023-04-16T16:30:16.599Z,4.65
2023-04-16T16:32:44.556Z,6.23
2023-04-16T16:35:12.576Z,5.80
2023-04-16T16:37:39.733Z,7.10
2023-04-16T16:40:07.860Z,6.22
2023-04-16T16:42:35.347Z,6.35
2023-04-16T16:45:06.150Z,6.20
2023-04-16T16:47:33.671Z,5.80
2023-04-16T16:50:02.702Z,4.55
2023-04-16T16:52:30.310Z,5.80
2023-04-16T16:54:57.566Z,7.35
2023-04-16T16:57:24.996Z,6.07
2023-04-16T16:59:52.099Z,6.18
2023-04-16T17:02:19.308Z,5.68
2023-04-16T17:04:46.453Z,7.55
2023-04-16T17:07:13.587Z,14.25
2023-04-16T17:09:40.890Z,21.87
2023-04-16T17:12:08.058Z,22.08
2023-04-16T17:14:35.723Z,25.33
2023-04-16T17:17:02.962Z,11.88
2023-04-16T17:19:30.068Z,10.90
2023-04-16T17:21:57.225Z,10.40
2023-04-16T17:24:24.387Z,7.43
2023-04-16T17:26:51.731Z,8.07
2023-04-16T17:29:20.148Z,7.18
2023-04-16T17:31:47.450Z,9.90
2023-04-16T17:34:14.570Z,9.30
2023-04-16T17:40:44.342Z,10.55
2023-04-16T17:43:12.491Z,11.98
2023-04-16T17:45:39.505Z,10.80
2023-04-16T17:48:06.732Z,9.60
2023-04-16T17:50:33.796Z,13.13
2023-04-16T17:53:03.973Z,13.68
2023-04-16T17:59:58.215Z,16.77
2023-04-16T18:02:25.758Z,20.00
2023-04-16T18:04:53.126Z,19.15
2023-04-16T18:07:20.250Z,19.08
2023-04-16T18:09:47.151Z,19.80
2023-04-16T18:12:14.128Z,19.90
2023-04-16T18:14:44.827Z,18.83
2023-04-16T18:17:13.097Z,21.67
2023-04-16T18:19:43.639Z,20.65
2023-04-16T18:22:13.416Z,19.50
2023-04-16T18:24:40.861Z,18.88
2023-04-16T18:27:07.880Z,20.47
2023-04-16T18:29:34.955Z,17.83
2023-04-16T18:32:04.275Z,18.45
2023-04-16T18:34:32.064Z,16.95
2023-04-16T18:36:59.064Z,18.13
2023-04-16T18:39:26.157Z,16.97
2023-04-16T18:41:53.170Z,18.25
2023-04-16T18:44:20.798Z,18.95
2023-04-16T18:46:48.572Z,16.40
2023-04-16T18:49:15.950Z,16.50
2023-04-16T18:51:42.982Z,15.20
2023-04-16T18:54:10.028Z,18.63
2023-04-16T18:56:36.974Z,16.80
2023-04-16T18:59:06.495Z,20.23
2023-04-16T19:01:33.548Z,17.77
2023-04-16T19:04:01.664Z,19.87
2023-04-16T19:06:29.489Z,21.92
2023-04-16T19:08:56.580Z,21.20
2023-04-16T19:11:23.652Z,20.98
2023-04-16T19:13:50.688Z,19.90
2023-04-16T19:16:17.930Z,20.53
2023-04-16T19:18:44.913Z,20.55
2023-04-16T19:21:12.012Z,18.92
2023-04-16T19:23:39.075Z,20.08
2023-04-16T19:26:06.487Z,19.98
2023-04-16T19:28:33.454Z,19.50
2023-04-16T19:31:00.444Z,18.98
2023-04-16T19:33:27.471Z,18.70
2023-04-16T19:35:54.615Z,18.80
2023-04-16T19:38:21.568Z,17.52
2023-04-16T19:40:49.108Z,17.90
2023-04-16T19:43:16.207Z,21.08
2023-04-16T19:45:44.503Z,19.23
2023-04-16T19:48:11.679Z,18.48
2023-04-16T19:50:42.670Z,20.25
2023-04-16T19:53:10.662Z,22.63
2023-04-16T19:55:40.210Z,20.65
2023-04-16T19:58:08.046Z,20.45
2023-04-16T20:00:37.681Z,22.38
2023-04-16T20:03:06.038Z,22.08
2023-04-16T20:05:33.113Z,21.03
2023-04-16T20:08:00.431Z,22.65
2023-04-16T20:10:27.885Z,20.85
2023-04-16T20:12:54.981Z,22.00
2023-04-16T20:15:22.235Z,21.83
2023-04-16T20:17:49.945Z,20.07
2023-04-16T20:20:17.123Z,25.23
2023-04-16T20:22:44.206Z,22.48
2023-04-16T20:25:11.668Z,22.65
2023-04-16T20:27:38.831Z,21.70
2023-04-16T20:30:06.481Z,21.80
2023-04-16T20:32:33.740Z,25.27
2023-04-16T20:35:02.024Z,23.80
2023-04-16T20:37:29.247Z,26.73
2023-04-16T20:39:56.495Z,37.88
2023-04-16T20:42:26.385Z,59.13
2023-04-16T20:44:56.500Z,43.80
2023-04-16T20:47:24.095Z,30.30
2023-04-16T20:49:52.906Z,28.73
2023-04-16T20:52:23.930Z,28.52
2023-04-16T20:54:52.343Z,27.63
2023-04-16T20:57:19.401Z,27.75
2023-04-16T20:59:47.348Z,28.88
2023-04-16T21:02:14.517Z,26.30
2023-04-16T21:04:41.824Z,28.83
2023-04-16T21:07:08.947Z,25.83
2023-04-16T21:09:36.351Z,26.05
2023-04-16T21:12:06.483Z,27.40
2023-04-16T21:14:33.503Z,32.72
2023-04-16T21:17:00.476Z,27.45
2023-04-16T21:19:27.508Z,28.30
2023-04-16T21:21:54.475Z,26.33
2023-04-16T21:24:21.489Z,25.80
2023-04-16T21:26:48.452Z,27.02
2023-04-16T21:29:16.043Z,29.65
2023-04-16T21:31:43.037Z,28.50
2023-04-16T21:34:10.109Z,25.85
2023-04-16T21:36:37.338Z,27.27
2023-04-16T21:39:04.373Z,24.35
2023-04-16T21:41:31.631Z,25.70
2023-04-16T21:43:58.809Z,26.67
2023-04-16T21:46:27.140Z,27.95
2023-04-16T21:48:54.387Z,26.10
2023-04-16T21:51:29.123Z,28.00
2023-04-16T21:53:59.188Z,28.50
2023-04-16T21:56:26.458Z,28.33
2023-04-16T21:58:53.655Z,27.83
2023-04-16T22:01:20.817Z,29.63
2023-04-16T22:03:50.855Z,27.65
2023-04-16T22:06:18.404Z,26.75
2023-04-16T22:08:45.520Z,27.60
2023-04-16T22:11:12.700Z,27.67
2023-04-16T22:13:42.004Z,28.08
2023-04-16T22:16:11.523Z,33.22
2023-04-16T22:18:38.992Z,34.42
2023-04-16T22:21:06.192Z,32.87
2023-04-16T22:23:33.204Z,30.58
2023-04-16T22:26:00.298Z,32.67
2023-04-16T22:28:27.305Z,27.30
2023-04-16T22:30:54.350Z,29.13
2023-04-16T22:33:21.449Z,28.80
2023-04-16T22:35:48.480Z,28.38
2023-04-16T22:38:16.543Z,29.65
2023-04-16T22:40:43.598Z,29.80
2023-04-16T22:43:10.901Z,31.17
2023-04-16T22:45:38.129Z,26.53
2023-04-16T22:48:05.148Z,27.55
2023-04-16T22:50:32.396Z,25.75
2023-04-16T22:52:59.407Z,27.33
2023-04-16T22:55:26.462Z,27.65
2023-04-16T22:57:53.416Z,29.13
2023-04-16T23:00:21.263Z,32.10
2023-04-16T23:02:48.422Z,25.65
2023-04-16T23:05:15.891Z,29.98
2023-04-16T23:07:43.012Z,35.28
2023-04-16T23:10:10.510Z,32.57
2023-04-16T23:12:37.589Z,31.55
2023-04-16T23:15:06.861Z,30.55
2023-04-16T23:17:35.160Z,29.05
2023-04-16T23:20:02.877Z,30.10
2023-04-16T23:22:29.918Z,31.20
2023-04-16T23:24:57.114Z,29.33
2023-04-16T23:27:24.121Z,30.95
2023-04-16T23:29:53.979Z,27.27
2023-04-16T23:32:21.082Z,27.85
2023-04-16T23:34:48.157Z,26.37
2023-04-16T23:37:15.607Z,24.13
2023-04-16T23:39:42.584Z,31.05
2023-04-16T23:42:09.653Z,26.25
2023-04-16T23:44:36.648Z,25.45
2023-04-16T23:47:04.516Z,25.67
2023-04-16T23:49:31.531Z,27.88
2023-04-16T23:51:58.715Z,26.55
2023-04-16T23:54:25.639Z,25.83
2023-04-16T23:56:52.612Z,26.65
2023-04-16T23:59:19.786Z,26.20
